Béziers-Vias Airport

Airport
ICAO code: 
LFMU
IATA Code: 
BZR
Summary
ICAO Region: 
EUR
Territory: 
Location: 
, Languedoc-Roussillon
Serving: 
Beziers
Elevation: 
56 ft
Coordinates: 
Aerial View: 
43° 19' 24.679" N, 3° 21' 14.051" E
Metar
Observation
LFMU 241700Z AUTO 21003KT CAVOK 09/04 Q1030 NOSIG
Station
Beziers / Vias
Date/Time
2022-01-24 17:00:00
Wind direction
210°
Wind speed
03 kts
Lowest cloud amount
clouds and visibility OK
Temperature
9°C
Dew point
4°C
Humidity
70%
QNH
1030 hPa
Weather condition
n/a

Runways

Designator Length Width Surface Rops
10/28 1820 30 ASP No/No
Airport map: 
Aerial View: 

SKYbrary Partners:

Safety knowledge contributed by: